sensor_id;sensor_type;location;lat;lon;timestamp;P1;durP1;ratioP1;P2;durP2;ratioP2
4023;SDS011;2026;51.002;13.668;2024-01-30T00:00:22;19.70;;;10.40;;
4023;SDS011;2026;51.002;13.668;2024-01-30T00:05:24;17.10;;;9.63;;
4023;SDS011;2026;51.002;13.668;2024-01-30T00:10:29;16.33;;;9.20;;
4023;SDS011;2026;51.002;13.668;2024-01-30T00:15:32;20.53;;;11.27;;
4023;SDS011;2026;51.002;13.668;2024-01-30T00:20:36;18.10;;;10.53;;
4023;SDS011;2026;51.002;13.668;2024-01-30T00:25:40;17.50;;;10.60;;
4023;SDS011;2026;51.002;13.668;2024-01-30T00:30:43;15.03;;;9.67;;
4023;SDS011;2026;51.002;13.668;2024-01-30T00:35:46;23.10;;;11.90;;
4023;SDS011;2026;51.002;13.668;2024-01-30T00:40:50;20.50;;;11.80;;
4023;SDS011;2026;51.002;13.668;2024-01-30T00:45:53;21.67;;;12.37;;
4023;SDS011;2026;51.002;13.668;2024-01-30T00:50:57;23.27;;;12.20;;
4023;SDS011;2026;51.002;13.668;2024-01-30T00:56:01;22.73;;;12.10;;
4023;SDS011;2026;51.002;13.668;2024-01-30T01:01:04;19.30;;;12.50;;
4023;SDS011;2026;51.002;13.668;2024-01-30T01:06:09;23.50;;;12.10;;
4023;SDS011;2026;51.002;13.668;2024-01-30T01:11:13;23.60;;;12.50;;
4023;SDS011;2026;51.002;13.668;2024-01-30T01:16:16;20.40;;;11.90;;
4023;SDS011;2026;51.002;13.668;2024-01-30T01:21:19;23.73;;;11.97;;
4023;SDS011;2026;51.002;13.668;2024-01-30T01:26:24;23.73;;;12.47;;
4023;SDS011;2026;51.002;13.668;2024-01-30T01:31:27;20.83;;;11.97;;
4023;SDS011;2026;51.002;13.668;2024-01-30T01:36:31;19.47;;;12.50;;
4023;SDS011;2026;51.002;13.668;2024-01-30T01:41:35;21.80;;;11.63;;
4023;SDS011;2026;51.002;13.668;2024-01-30T01:46:38;20.70;;;12.20;;
4023;SDS011;2026;51.002;13.668;2024-01-30T01:51:41;21.30;;;11.70;;
4023;SDS011;2026;51.002;13.668;2024-01-30T01:56:47;22.17;;;12.03;;
4023;SDS011;2026;51.002;13.668;2024-01-30T02:01:50;25.53;;;12.40;;
4023;SDS011;2026;51.002;13.668;2024-01-30T02:06:55;25.50;;;13.60;;
4023;SDS011;2026;51.002;13.668;2024-01-30T02:12:00;23.23;;;11.90;;
4023;SDS011;2026;51.002;13.668;2024-01-30T02:17:03;19.37;;;11.53;;
4023;SDS011;2026;51.002;13.668;2024-01-30T02:22:07;23.93;;;11.90;;
4023;SDS011;2026;51.002;13.668;2024-01-30T02:27:12;21.00;;;11.90;;
4023;SDS011;2026;51.002;13.668;2024-01-30T02:32:15;26.70;;;12.60;;
4023;SDS011;2026;51.002;13.668;2024-01-30T02:37:19;23.70;;;11.23;;
4023;SDS011;2026;51.002;13.668;2024-01-30T02:42:22;26.00;;;12.37;;
4023;SDS011;2026;51.002;13.668;2024-01-30T02:47:25;19.57;;;11.93;;
4023;SDS011;2026;51.002;13.668;2024-01-30T02:52:29;26.33;;;12.90;;
4023;SDS011;2026;51.002;13.668;2024-01-30T02:57:32;26.70;;;12.80;;
4023;SDS011;2026;51.002;13.668;2024-01-30T03:02:35;23.67;;;12.60;;
4023;SDS011;2026;51.002;13.668;2024-01-30T03:07:40;24.27;;;12.67;;
4023;SDS011;2026;51.002;13.668;2024-01-30T03:12:43;26.97;;;13.60;;
4023;SDS011;2026;51.002;13.668;2024-01-30T03:17:46;27.17;;;14.27;;
4023;SDS011;2026;51.002;13.668;2024-01-30T03:22:50;25.50;;;13.70;;
4023;SDS011;2026;51.002;13.668;2024-01-30T03:27:53;28.50;;;13.33;;
4023;SDS011;2026;51.002;13.668;2024-01-30T03:32:56;27.10;;;13.90;;
4023;SDS011;2026;51.002;13.668;2024-01-30T03:38:00;28.00;;;13.70;;
4023;SDS011;2026;51.002;13.668;2024-01-30T03:43:03;25.40;;;13.83;;
4023;SDS011;2026;51.002;13.668;2024-01-30T03:48:06;26.60;;;13.10;;
4023;SDS011;2026;51.002;13.668;2024-01-30T03:53:11;24.20;;;13.20;;
4023;SDS011;2026;51.002;13.668;2024-01-30T03:58:14;26.03;;;13.23;;
4023;SDS011;2026;51.002;13.668;2024-01-30T04:03:17;26.17;;;14.03;;
4023;SDS011;2026;51.002;13.668;2024-01-30T04:08:21;28.60;;;14.70;;
4023;SDS011;2026;51.002;13.668;2024-01-30T04:13:24;24.17;;;13.93;;
4023;SDS011;2026;51.002;13.668;2024-01-30T04:18:27;25.10;;;13.50;;
4023;SDS011;2026;51.002;13.668;2024-01-30T04:23:32;29.63;;;13.40;;
4023;SDS011;2026;51.002;13.668;2024-01-30T04:28:34;29.10;;;13.63;;
4023;SDS011;2026;51.002;13.668;2024-01-30T04:33:37;25.70;;;13.73;;
4023;SDS011;2026;51.002;13.668;2024-01-30T04:38:42;25.57;;;13.00;;
4023;SDS011;2026;51.002;13.668;2024-01-30T04:43:45;28.53;;;13.53;;
4023;SDS011;2026;51.002;13.668;2024-01-30T04:48:48;26.63;;;13.10;;
4023;SDS011;2026;51.002;13.668;2024-01-30T04:53:52;22.33;;;12.33;;
4023;SDS011;2026;51.002;13.668;2024-01-30T04:58:55;26.57;;;13.83;;
4023;SDS011;2026;51.002;13.668;2024-01-30T05:03:58;24.00;;;12.83;;
4023;SDS011;2026;51.002;13.668;2024-01-30T05:09:03;25.60;;;13.17;;
4023;SDS011;2026;51.002;13.668;2024-01-30T05:14:07;25.30;;;14.00;;
4023;SDS011;2026;51.002;13.668;2024-01-30T05:19:11;25.13;;;13.43;;
4023;SDS011;2026;51.002;13.668;2024-01-30T05:24:15;26.87;;;15.60;;
4023;SDS011;2026;51.002;13.668;2024-01-30T05:29:21;25.90;;;14.77;;
4023;SDS011;2026;51.002;13.668;2024-01-30T05:34:24;25.63;;;14.00;;
4023;SDS011;2026;51.002;13.668;2024-01-30T05:39:28;29.43;;;16.33;;
4023;SDS011;2026;51.002;13.668;2024-01-30T05:44:34;26.13;;;14.83;;
4023;SDS011;2026;51.002;13.668;2024-01-30T05:49:37;33.83;;;16.53;;
4023;SDS011;2026;51.002;13.668;2024-01-30T05:54:41;32.00;;;14.87;;
4023;SDS011;2026;51.002;13.668;2024-01-30T05:59:45;29.43;;;16.17;;
4023;SDS011;2026;51.002;13.668;2024-01-30T06:04:49;30.40;;;13.80;;
4023;SDS011;2026;51.002;13.668;2024-01-30T06:09:53;26.77;;;14.70;;
4023;SDS011;2026;51.002;13.668;2024-01-30T06:14:56;23.27;;;12.90;;
4023;SDS011;2026;51.002;13.668;2024-01-30T06:19:59;26.70;;;14.20;;
4023;SDS011;2026;51.002;13.668;2024-01-30T06:25:04;25.93;;;14.33;;
4023;SDS011;2026;51.002;13.668;2024-01-30T06:30:07;28.47;;;13.60;;
4023;SDS011;2026;51.002;13.668;2024-01-30T06:35:11;30.30;;;14.87;;
4023;SDS011;2026;51.002;13.668;2024-01-30T06:40:15;29.50;;;15.00;;
4023;SDS011;2026;51.002;13.668;2024-01-30T06:45:18;26.50;;;15.63;;
4023;SDS011;2026;51.002;13.668;2024-01-30T06:50:21;27.30;;;13.53;;
4023;SDS011;2026;51.002;13.668;2024-01-30T06:55:25;27.07;;;13.03;;
4023;SDS011;2026;51.002;13.668;2024-01-30T07:00:29;24.70;;;12.80;;
4023;SDS011;2026;51.002;13.668;2024-01-30T07:05:32;26.73;;;13.10;;
4023;SDS011;2026;51.002;13.668;2024-01-30T07:10:36;25.20;;;12.73;;
4023;SDS011;2026;51.002;13.668;2024-01-30T07:15:39;27.93;;;16.00;;
4023;SDS011;2026;51.002;13.668;2024-01-30T07:20:42;20.10;;;12.43;;
4023;SDS011;2026;51.002;13.668;2024-01-30T07:25:49;26.57;;;13.07;;
4023;SDS011;2026;51.002;13.668;2024-01-30T07:30:54;22.27;;;13.73;;
4023;SDS011;2026;51.002;13.668;2024-01-30T07:35:57;24.30;;;12.53;;
4023;SDS011;2026;51.002;13.668;2024-01-30T07:41:01;26.13;;;14.73;;
4023;SDS011;2026;51.002;13.668;2024-01-30T07:46:04;26.93;;;14.63;;
4023;SDS011;2026;51.002;13.668;2024-01-30T07:51:07;23.13;;;13.63;;
4023;SDS011;2026;51.002;13.668;2024-01-30T07:56:12;23.57;;;13.60;;
4023;SDS011;2026;51.002;13.668;2024-01-30T08:01:15;26.33;;;14.13;;
4023;SDS011;2026;51.002;13.668;2024-01-30T08:06:18;24.57;;;13.73;;
4023;SDS011;2026;51.002;13.668;2024-01-30T08:11:22;24.50;;;13.93;;
4023;SDS011;2026;51.002;13.668;2024-01-30T08:16:27;24.00;;;14.70;;
4023;SDS011;2026;51.002;13.668;2024-01-30T08:21:30;23.23;;;13.90;;
4023;SDS011;2026;51.002;13.668;2024-01-30T08:26:41;20.30;;;12.27;;
4023;SDS011;2026;51.002;13.668;2024-01-30T08:31:44;23.30;;;12.40;;
4023;SDS011;2026;51.002;13.668;2024-01-30T08:36:47;18.83;;;11.90;;
4023;SDS011;2026;51.002;13.668;2024-01-30T08:41:52;25.47;;;15.33;;
4023;SDS011;2026;51.002;13.668;2024-01-30T08:46:55;28.40;;;14.70;;
4023;SDS011;2026;51.002;13.668;2024-01-30T08:52:00;19.40;;;12.47;;
4023;SDS011;2026;51.002;13.668;2024-01-30T08:57:05;24.17;;;13.83;;
4023;SDS011;2026;51.002;13.668;2024-01-30T09:02:08;28.50;;;15.67;;
4023;SDS011;2026;51.002;13.668;2024-01-30T09:07:13;27.63;;;15.37;;
4023;SDS011;2026;51.002;13.668;2024-01-30T09:12:17;30.43;;;15.80;;
4023;SDS011;2026;51.002;13.668;2024-01-30T09:17:20;23.27;;;15.20;;
4023;SDS011;2026;51.002;13.668;2024-01-30T09:22:23;24.07;;;15.50;;
4023;SDS011;2026;51.002;13.668;2024-01-30T09:27:28;22.00;;;15.30;;
4023;SDS011;2026;51.002;13.668;2024-01-30T09:32:31;23.67;;;14.93;;
4023;SDS011;2026;51.002;13.668;2024-01-30T09:37:34;21.13;;;12.57;;
4023;SDS011;2026;51.002;13.668;2024-01-30T09:42:38;23.00;;;12.50;;
4023;SDS011;2026;51.002;13.668;2024-01-30T09:47:45;22.13;;;13.37;;
4023;SDS011;2026;51.002;13.668;2024-01-30T09:52:48;19.40;;;11.60;;
4023;SDS011;2026;51.002;13.668;2024-01-30T09:57:55;17.20;;;10.30;;
4023;SDS011;2026;51.002;13.668;2024-01-30T10:02:59;17.20;;;10.17;;
4023;SDS011;2026;51.002;13.668;2024-01-30T10:08:05;18.63;;;11.33;;
4023;SDS011;2026;51.002;13.668;2024-01-30T10:13:11;20.37;;;10.37;;
4023;SDS011;2026;51.002;13.668;2024-01-30T10:18:14;15.47;;;9.90;;
4023;SDS011;2026;51.002;13.668;2024-01-30T10:23:20;16.20;;;10.73;;
4023;SDS011;2026;51.002;13.668;2024-01-30T10:28:26;19.37;;;10.30;;
4023;SDS011;2026;51.002;13.668;2024-01-30T10:33:31;20.57;;;11.70;;
4023;SDS011;2026;51.002;13.668;2024-01-30T10:38:34;18.20;;;10.67;;
4023;SDS011;2026;51.002;13.668;2024-01-30T10:43:41;15.50;;;10.67;;
4023;SDS011;2026;51.002;13.668;2024-01-30T10:48:46;15.47;;;10.63;;
4023;SDS011;2026;51.002;13.668;2024-01-30T10:53:58;22.40;;;12.23;;
4023;SDS011;2026;51.002;13.668;2024-01-30T10:59:05;21.03;;;11.00;;
4023;SDS011;2026;51.002;13.668;2024-01-30T11:04:13;17.10;;;10.87;;
4023;SDS011;2026;51.002;13.668;2024-01-30T11:09:18;22.37;;;12.17;;
4023;SDS011;2026;51.002;13.668;2024-01-30T11:14:26;18.10;;;11.13;;
4023;SDS011;2026;51.002;13.668;2024-01-30T11:19:32;18.87;;;11.17;;
4023;SDS011;2026;51.002;13.668;2024-01-30T11:24:39;18.10;;;11.07;;
4023;SDS011;2026;51.002;13.668;2024-01-30T11:29:49;17.30;;;12.00;;
4023;SDS011;2026;51.002;13.668;2024-01-30T11:34:53;17.90;;;11.70;;
4023;SDS011;2026;51.002;13.668;2024-01-30T11:39:57;19.80;;;11.53;;
4023;SDS011;2026;51.002;13.668;2024-01-30T11:45:03;18.40;;;11.63;;
4023;SDS011;2026;51.002;13.668;2024-01-30T11:50:07;18.80;;;11.40;;
4023;SDS011;2026;51.002;13.668;2024-01-30T11:55:12;19.87;;;12.53;;
4023;SDS011;2026;51.002;13.668;2024-01-30T12:00:18;20.00;;;11.97;;
4023;SDS011;2026;51.002;13.668;2024-01-30T12:05:22;29.90;;;18.00;;
4023;SDS011;2026;51.002;13.668;2024-01-30T12:10:26;31.07;;;15.57;;
4023;SDS011;2026;51.002;13.668;2024-01-30T12:15:30;24.63;;;14.00;;
4023;SDS011;2026;51.002;13.668;2024-01-30T12:20:34;18.50;;;11.60;;
4023;SDS011;2026;51.002;13.668;2024-01-30T12:25:37;22.37;;;12.93;;
4023;SDS011;2026;51.002;13.668;2024-01-30T12:30:42;23.10;;;12.03;;
4023;SDS011;2026;51.002;13.668;2024-01-30T12:35:48;21.90;;;12.67;;
4023;SDS011;2026;51.002;13.668;2024-01-30T12:41:03;24.57;;;12.40;;
4023;SDS011;2026;51.002;13.668;2024-01-30T12:46:07;20.23;;;12.27;;
4023;SDS011;2026;51.002;13.668;2024-01-30T12:51:11;21.23;;;12.53;;
4023;SDS011;2026;51.002;13.668;2024-01-30T12:56:14;23.50;;;13.07;;
4023;SDS011;2026;51.002;13.668;2024-01-30T13:01:18;21.70;;;12.93;;
4023;SDS011;2026;51.002;13.668;2024-01-30T13:06:21;25.83;;;15.13;;
4023;SDS011;2026;51.002;13.668;2024-01-30T13:11:24;21.83;;;14.00;;
4023;SDS011;2026;51.002;13.668;2024-01-30T13:16:29;30.70;;;16.10;;
4023;SDS011;2026;51.002;13.668;2024-01-30T13:21:32;21.53;;;13.13;;
4023;SDS011;2026;51.002;13.668;2024-01-30T13:26:35;19.83;;;11.83;;
4023;SDS011;2026;51.002;13.668;2024-01-30T13:31:39;28.63;;;16.83;;
4023;SDS011;2026;51.002;13.668;2024-01-30T13:36:43;26.80;;;14.20;;
4023;SDS011;2026;51.002;13.668;2024-01-30T13:41:46;27.43;;;14.77;;
4023;SDS011;2026;51.002;13.668;2024-01-30T13:46:51;26.77;;;14.60;;
4023;SDS011;2026;51.002;13.668;2024-01-30T13:51:54;25.87;;;13.40;;
4023;SDS011;2026;51.002;13.668;2024-01-30T13:56:58;24.13;;;14.23;;
4023;SDS011;2026;51.002;13.668;2024-01-30T14:02:03;25.33;;;14.10;;
4023;SDS011;2026;51.002;13.668;2024-01-30T14:07:07;30.13;;;16.70;;
4023;SDS011;2026;51.002;13.668;2024-01-30T14:12:10;25.50;;;14.67;;
4023;SDS011;2026;51.002;13.668;2024-01-30T14:17:14;20.90;;;12.93;;
4023;SDS011;2026;51.002;13.668;2024-01-30T14:22:17;25.37;;;14.37;;
4023;SDS011;2026;51.002;13.668;2024-01-30T14:27:20;24.97;;;14.33;;
4023;SDS011;2026;51.002;13.668;2024-01-30T14:32:24;24.70;;;14.03;;
4023;SDS011;2026;51.002;13.668;2024-01-30T14:37:27;25.23;;;14.40;;
4023;SDS011;2026;51.002;13.668;2024-01-30T14:42:31;24.33;;;15.03;;
4023;SDS011;2026;51.002;13.668;2024-01-30T14:47:36;27.17;;;15.40;;
4023;SDS011;2026;51.002;13.668;2024-01-30T14:52:39;25.17;;;15.17;;
4023;SDS011;2026;51.002;13.668;2024-01-30T14:57:42;27.97;;;16.90;;
4023;SDS011;2026;51.002;13.668;2024-01-30T15:02:48;26.10;;;15.63;;
4023;SDS011;2026;51.002;13.668;2024-01-30T15:07:51;28.60;;;17.83;;
4023;SDS011;2026;51.002;13.668;2024-01-30T15:12:54;32.30;;;15.53;;
4023;SDS011;2026;51.002;13.668;2024-01-30T15:17:59;29.70;;;16.40;;
4023;SDS011;2026;51.002;13.668;2024-01-30T15:23:02;29.60;;;17.07;;
4023;SDS011;2026;51.002;13.668;2024-01-30T15:28:05;23.70;;;14.73;;
4023;SDS011;2026;51.002;13.668;2024-01-30T15:33:10;25.00;;;13.60;;
4023;SDS011;2026;51.002;13.668;2024-01-30T15:38:13;21.00;;;12.17;;
4023;SDS011;2026;51.002;13.668;2024-01-30T15:43:17;27.57;;;14.93;;
4023;SDS011;2026;51.002;13.668;2024-01-30T15:48:22;22.43;;;14.97;;
4023;SDS011;2026;51.002;13.668;2024-01-30T15:53:25;25.43;;;14.10;;
4023;SDS011;2026;51.002;13.668;2024-01-30T15:58:28;24.80;;;14.20;;
4023;SDS011;2026;51.002;13.668;2024-01-30T16:03:33;29.33;;;16.10;;
4023;SDS011;2026;51.002;13.668;2024-01-30T16:08:36;34.77;;;18.40;;
4023;SDS011;2026;51.002;13.668;2024-01-30T16:13:39;29.20;;;15.47;;
4023;SDS011;2026;51.002;13.668;2024-01-30T16:18:43;30.13;;;19.90;;
4023;SDS011;2026;51.002;13.668;2024-01-30T16:23:46;38.93;;;21.00;;
4023;SDS011;2026;51.002;13.668;2024-01-30T16:28:50;38.33;;;22.53;;
4023;SDS011;2026;51.002;13.668;2024-01-30T16:33:54;32.23;;;19.50;;
4023;SDS011;2026;51.002;13.668;2024-01-30T16:38:58;40.13;;;23.40;;
4023;SDS011;2026;51.002;13.668;2024-01-30T16:44:04;33.70;;;18.00;;
4023;SDS011;2026;51.002;13.668;2024-01-30T16:49:08;41.17;;;21.97;;
4023;SDS011;2026;51.002;13.668;2024-01-30T16:54:12;29.90;;;17.00;;
4023;SDS011;2026;51.002;13.668;2024-01-30T16:59:15;24.30;;;15.30;;
4023;SDS011;2026;51.002;13.668;2024-01-30T17:04:20;29.53;;;15.47;;
4023;SDS011;2026;51.002;13.668;2024-01-30T17:09:24;40.50;;;23.17;;
4023;SDS011;2026;51.002;13.668;2024-01-30T17:14:27;32.97;;;17.37;;
4023;SDS011;2026;51.002;13.668;2024-01-30T17:19:31;26.10;;;15.67;;
4023;SDS011;2026;51.002;13.668;2024-01-30T17:24:34;32.13;;;19.67;;
4023;SDS011;2026;51.002;13.668;2024-01-30T17:29:50;34.67;;;19.43;;
4023;SDS011;2026;51.002;13.668;2024-01-30T17:34:55;33.20;;;18.43;;
4023;SDS011;2026;51.002;13.668;2024-01-30T17:39:58;36.00;;;17.93;;
4023;SDS011;2026;51.002;13.668;2024-01-30T17:45:01;42.77;;;22.73;;
4023;SDS011;2026;51.002;13.668;2024-01-30T17:50:06;43.50;;;21.73;;
4023;SDS011;2026;51.002;13.668;2024-01-30T17:55:10;31.80;;;20.13;;
4023;SDS011;2026;51.002;13.668;2024-01-30T18:00:13;34.63;;;19.00;;
4023;SDS011;2026;51.002;13.668;2024-01-30T18:05:21;39.33;;;21.20;;
4023;SDS011;2026;51.002;13.668;2024-01-30T18:10:24;53.47;;;27.40;;
4023;SDS011;2026;51.002;13.668;2024-01-30T18:15:27;46.47;;;27.80;;
4023;SDS011;2026;51.002;13.668;2024-01-30T18:20:31;41.60;;;21.50;;
4023;SDS011;2026;51.002;13.668;2024-01-30T18:25:34;45.17;;;23.70;;
4023;SDS011;2026;51.002;13.668;2024-01-30T18:30:37;40.97;;;22.40;;
4023;SDS011;2026;51.002;13.668;2024-01-30T18:35:42;50.33;;;27.93;;
4023;SDS011;2026;51.002;13.668;2024-01-30T18:40:44;43.60;;;25.10;;
4023;SDS011;2026;51.002;13.668;2024-01-30T18:45:50;37.97;;;22.70;;
4023;SDS011;2026;51.002;13.668;2024-01-30T18:50:57;41.57;;;22.57;;
4023;SDS011;2026;51.002;13.668;2024-01-30T18:56:01;34.80;;;21.90;;
4023;SDS011;2026;51.002;13.668;2024-01-30T19:01:04;44.83;;;23.50;;
4023;SDS011;2026;51.002;13.668;2024-01-30T19:06:08;49.80;;;26.97;;
4023;SDS011;2026;51.002;13.668;2024-01-30T19:11:17;37.80;;;21.73;;
4023;SDS011;2026;51.002;13.668;2024-01-30T19:16:20;38.03;;;20.83;;
4023;SDS011;2026;51.002;13.668;2024-01-30T19:21:25;45.53;;;24.57;;
4023;SDS011;2026;51.002;13.668;2024-01-30T19:26:28;34.73;;;20.83;;
4023;SDS011;2026;51.002;13.668;2024-01-30T19:31:31;40.83;;;23.27;;
4023;SDS011;2026;51.002;13.668;2024-01-30T19:36:35;45.97;;;22.50;;
4023;SDS011;2026;51.002;13.668;2024-01-30T19:41:40;41.43;;;22.27;;
4023;SDS011;2026;51.002;13.668;2024-01-30T19:46:45;46.97;;;24.47;;
4023;SDS011;2026;51.002;13.668;2024-01-30T19:51:49;42.27;;;23.33;;
4023;SDS011;2026;51.002;13.668;2024-01-30T19:56:52;46.97;;;24.97;;
4023;SDS011;2026;51.002;13.668;2024-01-30T20:01:56;45.70;;;24.90;;
4023;SDS011;2026;51.002;13.668;2024-01-30T20:07:01;44.83;;;25.00;;
4023;SDS011;2026;51.002;13.668;2024-01-30T20:12:04;46.77;;;25.37;;
4023;SDS011;2026;51.002;13.668;2024-01-30T20:17:08;41.43;;;23.27;;
4023;SDS011;2026;51.002;13.668;2024-01-30T20:22:16;37.93;;;21.03;;
4023;SDS011;2026;51.002;13.668;2024-01-30T20:27:19;34.40;;;18.57;;
4023;SDS011;2026;51.002;13.668;2024-01-30T20:32:22;42.33;;;22.73;;
4023;SDS011;2026;51.002;13.668;2024-01-30T20:37:27;48.60;;;27.53;;
4023;SDS011;2026;51.002;13.668;2024-01-30T20:42:30;51.40;;;30.43;;
4023;SDS011;2026;51.002;13.668;2024-01-30T20:47:33;46.43;;;27.23;;
4023;SDS011;2026;51.002;13.668;2024-01-30T20:52:37;44.23;;;24.07;;
4023;SDS011;2026;51.002;13.668;2024-01-30T20:57:40;47.13;;;27.30;;
4023;SDS011;2026;51.002;13.668;2024-01-30T21:02:43;51.70;;;27.00;;
4023;SDS011;2026;51.002;13.668;2024-01-30T21:07:48;47.43;;;26.17;;
4023;SDS011;2026;51.002;13.668;2024-01-30T21:12:51;40.13;;;21.77;;
4023;SDS011;2026;51.002;13.668;2024-01-30T21:17:54;43.90;;;20.03;;
4023;SDS011;2026;51.002;13.668;2024-01-30T21:22:58;37.57;;;21.80;;
4023;SDS011;2026;51.002;13.668;2024-01-30T21:28:01;36.37;;;20.07;;
4023;SDS011;2026;51.002;13.668;2024-01-30T21:33:05;36.13;;;19.83;;
4023;SDS011;2026;51.002;13.668;2024-01-30T21:38:10;32.83;;;18.47;;
4023;SDS011;2026;51.002;13.668;2024-01-30T21:43:13;42.17;;;19.73;;
4023;SDS011;2026;51.002;13.668;2024-01-30T21:48:16;42.33;;;21.13;;
4023;SDS011;2026;51.002;13.668;2024-01-30T21:53:20;38.30;;;20.20;;
4023;SDS011;2026;51.002;13.668;2024-01-30T21:58:23;37.67;;;20.30;;
4023;SDS011;2026;51.002;13.668;2024-01-30T22:03:26;37.63;;;19.97;;
4023;SDS011;2026;51.002;13.668;2024-01-30T22:08:31;40.67;;;20.10;;
4023;SDS011;2026;51.002;13.668;2024-01-30T22:13:34;37.67;;;19.23;;
4023;SDS011;2026;51.002;13.668;2024-01-30T22:18:37;33.63;;;19.27;;
4023;SDS011;2026;51.002;13.668;2024-01-30T22:23:41;37.70;;;19.03;;
4023;SDS011;2026;51.002;13.668;2024-01-30T22:28:44;39.87;;;20.07;;
4023;SDS011;2026;51.002;13.668;2024-01-30T22:33:47;40.97;;;18.93;;
4023;SDS011;2026;51.002;13.668;2024-01-30T22:38:51;36.53;;;19.87;;
4023;SDS011;2026;51.002;13.668;2024-01-30T22:43:54;41.20;;;19.10;;
4023;SDS011;2026;51.002;13.668;2024-01-30T22:48:57;40.83;;;18.37;;
4023;SDS011;2026;51.002;13.668;2024-01-30T22:54:02;36.20;;;20.17;;
4023;SDS011;2026;51.002;13.668;2024-01-30T22:59:05;41.73;;;20.10;;
4023;SDS011;2026;51.002;13.668;2024-01-30T23:04:08;44.17;;;21.77;;
4023;SDS011;2026;51.002;13.668;2024-01-30T23:09:13;39.07;;;18.47;;
4023;SDS011;2026;51.002;13.668;2024-01-30T23:14:17;36.03;;;19.73;;
4023;SDS011;2026;51.002;13.668;2024-01-30T23:19:20;35.73;;;19.50;;
4023;SDS011;2026;51.002;13.668;2024-01-30T23:24:25;35.70;;;19.70;;
4023;SDS011;2026;51.002;13.668;2024-01-30T23:29:28;37.13;;;18.93;;
4023;SDS011;2026;51.002;13.668;2024-01-30T23:34:31;37.30;;;20.63;;
4023;SDS011;2026;51.002;13.668;2024-01-30T23:39:35;36.27;;;19.73;;
4023;SDS011;2026;51.002;13.668;2024-01-30T23:44:38;41.73;;;20.47;;
4023;SDS011;2026;51.002;13.668;2024-01-30T23:49:41;43.83;;;21.17;;
4023;SDS011;2026;51.002;13.668;2024-01-30T23:54:45;38.60;;;19.87;;
4023;SDS011;2026;51.002;13.668;2024-01-30T23:59:48;36.53;;;19.97;;
